Terminal Aerodrome Forecast
Issued by NWS Sioux Falls, SD

Home | Current Version | Previous Version | Text Only | Print | Product List | Glossary Off
Versions: 1 2 3 4 5 6 7 8 9 10 11 12 13 14 15 16 17 18 19 20 21 22

000
FTUS43 KFSD 241744
TAFHON
TAF
KHON 241744Z 2418/2518 24007KT 4SM BR OVC005
      TEMPO 2420/2422 2SM BR SCT004
     FM242200 20007KT P6SM SCT004 SCT200
     FM250000 18007KT P6SM SCT120
     FM251000 VRB04KT 3SM BR BKN025
     FM251300 04008KT 2SM BR OVC012=

USA.gov is the U.S. government's official web portal to all federal, state and local government web resources and services.